Time;durP1;ratioP1;P1;durP2;ratioP2;P2;SDS_P1;SDS_P2;PMS_P1;PMS_P2;Temp;Humidity;BMP_temperature;BMP_pressure;BME280_temperature;BME280_humidity;BME280_pressure;Samples;Min_cycle;Max_cycle;Signal;HPM_P1;HPM_P2
2023/08/24 00:00:49;;;;;;;0.82;0.82;;;23.50;80.30;;;;;;5023874;28;20030;-76
2023/08/24 00:03:15;;;;;;;1.00;1.00;;;23.50;80.20;;;;;;5024943;28;20123;-76
2023/08/24 00:05:42;;;;;;;0.90;0.90;;;23.50;80.40;;;;;;5020670;28;20030;-76
2023/08/24 00:08:08;;;;;;;1.08;0.85;;;23.50;80.50;;;;;;5022410;28;20036;-76
2023/08/24 00:10:34;;;;;;;1.00;1.00;;;23.50;80.50;;;;;;5023337;28;20419;-76
2023/08/24 00:12:59;;;;;;;0.82;0.80;;;23.50;80.60;;;;;;5022187;28;20617;-76
2023/08/24 00:15:25;;;;;;;0.80;0.80;;;23.50;80.50;;;;;;5025407;28;20045;-76
2023/08/24 00:17:50;;;;;;;0.87;0.87;;;23.50;80.60;;;;;;5023086;28;20612;-76
2023/08/24 00:20:16;;;;;;;0.90;0.90;;;23.50;80.50;;;;;;5023670;28;20083;-76
2023/08/24 00:22:42;;;;;;;0.70;0.70;;;23.50;80.60;;;;;;5023860;28;20033;-76
2023/08/24 00:25:08;;;;;;;0.90;0.90;;;23.50;81.50;;;;;;5024248;28;20046;-76
2023/08/24 00:27:34;;;;;;;0.95;0.95;;;23.50;80.60;;;;;;5025037;28;20491;-76
2023/08/24 00:30:01;;;;;;;1.23;1.13;;;23.50;80.60;;;;;;5023912;28;20029;-76
2023/08/24 00:32:27;;;;;;;0.90;0.90;;;23.50;80.60;;;;;;5023313;28;20030;-76
2023/08/24 00:34:53;;;;;;;1.00;1.00;;;23.50;80.60;;;;;;5022993;28;20029;-76
2023/08/24 00:37:18;;;;;;;0.70;0.70;;;23.50;80.60;;;;;;5024159;28;20030;-76
2023/08/24 00:39:44;;;;;;;0.90;0.90;;;23.50;80.60;;;;;;5022709;28;20064;-76
2023/08/24 00:42:14;;;;;;;0.80;0.80;;;23.50;80.70;;;;;;5023854;28;20042;-76
2023/08/24 00:44:40;;;;;;;0.80;0.80;;;23.50;80.60;;;;;;5024222;28;20033;-76
2023/08/24 00:47:06;;;;;;;0.70;0.70;;;23.50;80.70;;;;;;5023623;28;20096;-76
2023/08/24 00:49:32;;;;;;;1.00;0.95;;;23.50;80.70;;;;;;5021561;28;20530;-76
2023/08/24 00:51:57;;;;;;;1.38;0.80;;;23.50;80.60;;;;;;5021546;28;20034;-76
2023/08/24 00:54:23;;;;;;;0.90;0.90;;;23.50;80.60;;;;;;5035091;28;20431;-76
2023/08/24 00:56:49;;;;;;;1.27;0.70;;;23.50;80.50;;;;;;5022583;28;20041;-77
2023/08/24 00:59:14;;;;;;;0.88;0.88;;;23.50;80.70;;;;;;5022819;28;20068;-76
2023/08/24 01:01:40;;;;;;;0.80;0.80;;;23.50;80.70;;;;;;5023315;28;21706;-76
2023/08/24 01:04:07;;;;;;;0.80;0.80;;;23.50;80.60;;;;;;5021878;28;20561;-75
2023/08/24 01:06:32;;;;;;;0.80;0.80;;;23.50;80.60;;;;;;5025105;28;20096;-76
2023/08/24 01:08:58;;;;;;;0.90;0.90;;;23.50;80.70;;;;;;5021596;28;20033;-76
2023/08/24 01:11:29;;;;;;;0.80;0.80;;;23.40;80.70;;;;;;5021405;28;20128;-76
2023/08/24 01:13:59;;;;;;;0.98;0.98;;;23.40;80.70;;;;;;5022554;28;20040;-76
2023/08/24 01:16:27;;;;;;;0.85;0.85;;;23.50;80.70;;;;;;5022589;28;20037;-76
2023/08/24 01:18:59;;;;;;;0.77;0.77;;;23.40;81.40;;;;;;5021476;28;20118;-76
2023/08/24 01:21:25;;;;;;;0.98;0.73;;;23.50;80.70;;;;;;5019462;28;20407;-76
2023/08/24 01:24:10;;;;;;;0.60;0.60;;;23.40;80.60;;;;;;5018692;28;20041;-76
2023/08/24 01:26:36;;;;;;;0.70;0.70;;;23.40;80.60;;;;;;5022272;28;21107;-76
2023/08/24 01:29:02;;;;;;;0.80;0.80;;;23.40;80.70;;;;;;5021894;28;20579;-76
2023/08/24 01:31:27;;;;;;;1.77;0.80;;;23.40;80.80;;;;;;5022637;28;20049;-76
2023/08/24 01:33:53;;;;;;;0.70;0.70;;;23.40;80.80;;;;;;5021281;28;20507;-76
2023/08/24 01:36:19;;;;;;;0.70;0.70;;;23.50;80.80;;;;;;5022701;28;20046;-76
2023/08/24 01:38:46;;;;;;;0.80;0.80;;;23.40;80.70;;;;;;5022469;28;20077;-76
2023/08/24 01:41:13;;;;;;;0.60;0.60;;;23.40;80.70;;;;;;5022071;28;20203;-76
2023/08/24 01:43:39;;;;;;;0.57;0.57;;;23.40;80.70;;;;;;5025606;28;20042;-76
2023/08/24 01:46:05;;;;;;;0.73;0.73;;;23.50;80.90;;;;;;5026365;28;20057;-76
2023/08/24 01:48:31;;;;;;;0.75;0.75;;;23.40;80.80;;;;;;5026291;28;20404;-76
2023/08/24 01:50:57;;;;;;;1.85;0.70;;;23.40;81.60;;;;;;5024862;28;20261;-76
2023/08/24 01:53:22;;;;;;;1.00;1.00;;;23.40;80.70;;;;;;5024862;28;20041;-76
2023/08/24 01:55:48;;;;;;;0.63;0.63;;;23.40;80.80;;;;;;5025118;28;20052;-76
2023/08/24 01:58:15;;;;;;;0.60;0.60;;;23.40;80.70;;;;;;5026498;28;20133;-76
2023/08/24 02:00:41;;;;;;;0.75;0.75;;;23.40;80.80;;;;;;5026023;28;20049;-76
2023/08/24 02:03:06;;;;;;;0.68;0.68;;;23.40;80.80;;;;;;5024275;28;20112;-75
2023/08/24 02:05:32;;;;;;;0.63;0.63;;;23.40;80.80;;;;;;5026760;28;20514;-76
2023/08/24 02:07:59;;;;;;;0.70;0.70;;;23.40;80.80;;;;;;5026120;28;20022;-76
2023/08/24 02:10:25;;;;;;;0.88;0.88;;;23.40;80.80;;;;;;5025251;28;20068;-76
2023/08/24 02:12:51;;;;;;;0.52;0.52;;;23.40;80.70;;;;;;5026433;28;20071;-76
2023/08/24 02:15:17;;;;;;;1.05;0.60;;;23.40;80.80;;;;;;5027833;28;20077;-76
2023/08/24 02:17:42;;;;;;;0.70;0.70;;;23.40;80.80;;;;;;5025646;28;20045;-76
2023/08/24 02:20:08;;;;;;;0.60;0.60;;;23.40;80.70;;;;;;5025532;28;20049;-76
2023/08/24 02:22:34;;;;;;;0.70;0.70;;;23.40;80.70;;;;;;5025990;28;20523;-76
2023/08/24 02:25:01;;;;;;;0.70;0.70;;;23.40;80.70;;;;;;5025060;28;20049;-76
2023/08/24 02:27:26;;;;;;;0.52;0.52;;;23.40;80.70;;;;;;5027614;28;20041;-76
2023/08/24 02:29:52;;;;;;;0.70;0.70;;;23.40;80.70;;;;;;5023322;28;20686;-76
2023/08/24 02:32:18;;;;;;;1.10;0.73;;;23.40;80.70;;;;;;5025769;28;20041;-76
2023/08/24 02:34:43;;;;;;;0.80;0.80;;;23.40;80.80;;;;;;5026445;28;20033;-76
2023/08/24 02:37:09;;;;;;;0.90;0.90;;;23.40;80.70;;;;;;5025537;28;20048;-76
2023/08/24 02:39:35;;;;;;;0.65;0.65;;;23.40;80.70;;;;;;5026983;28;20056;-76
2023/08/24 02:42:00;;;;;;;0.60;0.60;;;23.40;80.70;;;;;;5025143;28;20515;-76
2023/08/24 02:44:26;;;;;;;0.70;0.70;;;23.40;80.60;;;;;;5025666;28;20489;-75
2023/08/24 02:46:53;;;;;;;0.60;0.60;;;23.40;80.70;;;;;;5025261;28;20056;-77
2023/08/24 02:49:19;;;;;;;0.75;0.75;;;23.40;80.70;;;;;;5025783;28;20115;-76
2023/08/24 02:51:44;;;;;;;0.80;0.80;;;23.40;80.60;;;;;;5026147;28;20106;-75
2023/08/24 02:54:10;;;;;;;0.68;0.68;;;23.40;80.60;;;;;;5025990;28;20057;-76
2023/08/24 02:56:35;;;;;;;0.60;0.60;;;23.40;80.60;;;;;;5025821;28;20121;-76
2023/08/24 02:59:01;;;;;;;0.52;0.52;;;23.40;80.60;;;;;;5022533;28;20025;-76
2023/08/24 03:01:26;;;;;;;0.50;0.50;;;23.40;80.50;;;;;;5025099;28;20041;-76
2023/08/24 03:03:52;;;;;;;0.70;0.70;;;23.40;80.50;;;;;;5024530;28;20558;-76
2023/08/24 03:06:17;;;;;;;0.68;0.68;;;23.40;80.50;;;;;;5025295;28;20080;-76
2023/08/24 03:08:44;;;;;;;0.50;0.50;;;23.40;80.50;;;;;;5025443;28;20037;-76
2023/08/24 03:11:09;;;;;;;0.60;0.60;;;23.40;80.40;;;;;;5024912;28;20048;-76
2023/08/24 03:13:37;;;;;;;0.77;0.60;;;23.40;80.50;;;;;;5024545;28;20041;-76
2023/08/24 03:16:04;;;;;;;0.60;0.60;;;23.40;80.50;;;;;;5025391;28;20073;-76
2023/08/24 03:18:30;;;;;;;0.70;0.60;;;23.40;80.40;;;;;;5025525;28;20519;-76
2023/08/24 03:20:55;;;;;;;0.65;0.65;;;23.40;80.50;;;;;;5023646;28;20073;-76
2023/08/24 03:23:21;;;;;;;0.60;0.60;;;23.40;80.40;;;;;;5024035;28;20600;-76
2023/08/24 03:25:47;;;;;;;0.73;0.73;;;23.40;80.40;;;;;;5024672;28;20299;-76
2023/08/24 03:28:13;;;;;;;0.60;0.60;;;23.40;80.40;;;;;;5024802;28;20045;-76
2023/08/24 03:30:45;;;;;;;1.00;1.00;;;23.40;80.40;;;;;;5025337;28;20434;-77
2023/08/24 03:33:11;;;;;;;0.60;0.60;;;23.40;80.40;;;;;;5024366;28;20400;-76
2023/08/24 03:35:37;;;;;;;0.70;0.70;;;23.40;81.20;;;;;;5025534;28;20894;-76
2023/08/24 03:38:03;;;;;;;0.63;0.63;;;23.40;80.30;;;;;;5021915;28;20414;-76
2023/08/24 03:40:29;;;;;;;0.65;0.65;;;23.40;80.30;;;;;;5024971;28;20045;-76
2023/08/24 03:42:55;;;;;;;0.55;0.55;;;23.40;80.30;;;;;;5024287;28;20446;-76
2023/08/24 03:45:21;;;;;;;0.50;0.50;;;23.40;80.30;;;;;;5026698;28;20124;-76
2023/08/24 03:47:46;;;;;;;0.55;0.55;;;23.40;80.30;;;;;;5025613;28;20762;-76
2023/08/24 03:50:12;;;;;;;0.60;0.60;;;23.40;80.30;;;;;;5024362;28;20049;-76
2023/08/24 03:52:39;;;;;;;0.60;0.50;;;23.40;80.30;;;;;;5024890;28;20042;-76
2023/08/24 03:55:06;;;;;;;0.60;0.60;;;23.40;80.20;;;;;;5023693;28;20045;-76
2023/08/24 03:57:31;;;;;;;0.60;0.60;;;23.40;80.20;;;;;;5026832;28;20486;-76
2023/08/24 03:59:57;;;;;;;0.50;0.50;;;23.40;80.10;;;;;;5023816;28;20045;-76
2023/08/24 04:02:23;;;;;;;0.63;0.63;;;23.40;80.10;;;;;;5024025;28;20045;-76
2023/08/24 04:04:48;;;;;;;0.80;0.80;;;23.40;80.10;;;;;;5023395;28;20045;-76
2023/08/24 04:07:14;;;;;;;0.82;0.70;;;23.40;80.10;;;;;;5023110;28;20045;-76
2023/08/24 04:09:40;;;;;;;0.80;0.80;;;23.40;80.10;;;;;;5025811;28;20045;-76
2023/08/24 04:12:06;;;;;;;0.68;0.68;;;23.40;80.10;;;;;;5023997;28;20033;-76
2023/08/24 04:14:31;;;;;;;0.57;0.50;;;23.40;80.10;;;;;;5024186;28;20037;-76
2023/08/24 04:16:57;;;;;;;0.60;0.60;;;23.40;80.10;;;;;;5023431;28;20050;-76
2023/08/24 04:19:22;;;;;;;0.57;0.50;;;23.40;80.10;;;;;;5021587;28;20049;-76
2023/08/24 04:21:48;;;;;;;0.60;0.60;;;23.40;80.10;;;;;;5024652;28;20454;-76
2023/08/24 04:24:13;;;;;;;0.45;0.45;;;23.40;80.00;;;;;;5024408;28;20052;-76
2023/08/24 04:26:39;;;;;;;0.70;0.70;;;23.40;80.10;;;;;;5022135;28;20452;-76
2023/08/24 04:29:04;;;;;;;0.50;0.50;;;23.40;80.10;;;;;;5023786;28;20037;-77
2023/08/24 04:31:30;;;;;;;2.03;1.50;;;23.40;80.10;;;;;;5024551;28;20045;-77
2023/08/24 04:33:56;;;;;;;2.42;1.58;;;23.10;81.00;;;;;;5023277;28;20045;-80
2023/08/24 04:36:21;;;;;;;3.58;2.08;;;23.00;82.00;;;;;;4673415;28;10000069;-76
2023/08/24 04:38:47;;;;;;;2.60;2.00;;;22.70;82.70;;;;;;5017253;28;20050;-76
2023/08/24 04:41:12;;;;;;;7.63;2.50;;;22.60;83.50;;;;;;5018168;28;20475;-77
2023/08/24 04:43:38;;;;;;;2.85;1.63;;;22.40;84.30;;;;;;5020354;28;20033;-77
2023/08/24 04:46:04;;;;;;;2.83;1.70;;;22.50;85.10;;;;;;5019898;28;20119;-78
2023/08/24 04:48:32;;;;;;;3.40;2.33;;;22.30;84.80;;;;;;5020516;28;20045;-77
2023/08/24 04:50:58;;;;;;;2.42;2.15;;;22.30;84.70;;;;;;5019374;28;20534;-77
2023/08/24 04:53:24;;;;;;;2.22;1.45;;;22.40;84.70;;;;;;5019047;28;20539;-77
2023/08/24 04:55:50;;;;;;;1.83;1.73;;;22.30;85.10;;;;;;5034096;28;20527;-76
2023/08/24 04:58:15;;;;;;;3.78;1.55;;;22.30;85.60;;;;;;4999910;28;20043;-77
2023/08/24 05:00:41;;;;;;;2.25;2.03;;;22.30;85.80;;;;;;5018819;28;20045;-77
2023/08/24 05:03:06;;;;;;;2.72;1.80;;;22.30;85.50;;;;;;5019348;28;20064;-76
2023/08/24 05:05:32;;;;;;;1.60;1.50;;;22.30;85.70;;;;;;5013371;28;20069;-77
2023/08/24 05:07:59;;;;;;;1.67;1.58;;;22.30;86.10;;;;;;5015023;28;20052;-77
2023/08/24 05:10:25;;;;;;;1.90;1.52;;;22.20;86.40;;;;;;5019431;28;20037;-77
2023/08/24 05:12:50;;;;;;;2.72;1.73;;;22.20;86.50;;;;;;5018846;28;20519;-77
2023/08/24 05:15:16;;;;;;;2.45;1.63;;;22.20;86.60;;;;;;5021134;28;20049;-77
2023/08/24 05:17:41;;;;;;;1.90;1.77;;;22.20;86.30;;;;;;5020176;28;20033;-77
2023/08/24 05:20:08;;;;;;;1.70;1.60;;;22.30;85.90;;;;;;5021979;28;20454;-77
2023/08/24 05:22:34;;;;;;;2.95;1.80;;;22.30;86.10;;;;;;5023942;28;20140;-78
2023/08/24 05:25:00;;;;;;;1.50;1.40;;;22.20;86.90;;;;;;5023592;28;20120;-77
2023/08/24 05:27:25;;;;;;;2.38;2.17;;;22.10;87.00;;;;;;5024858;28;20125;-77
2023/08/24 05:29:51;;;;;;;2.55;1.70;;;22.00;87.40;;;;;;5023514;28;20518;-77
2023/08/24 05:32:16;;;;;;;2.33;2.13;;;22.10;87.60;;;;;;5022764;28;20094;-77
2023/08/24 05:34:42;;;;;;;2.25;1.60;;;22.10;87.20;;;;;;5020729;28;20053;-77
2023/08/24 05:37:08;;;;;;;2.40;1.77;;;22.20;87.00;;;;;;5023496;28;20049;-77
2023/08/24 05:39:33;;;;;;;3.88;1.60;;;22.20;87.00;;;;;;5024088;28;20042;-77
2023/08/24 05:41:59;;;;;;;2.28;2.08;;;22.10;87.90;;;;;;5016582;28;20053;-77
2023/08/24 05:44:24;;;;;;;2.08;1.90;;;22.00;88.70;;;;;;5020852;28;20050;-77
2023/08/24 05:46:50;;;;;;;2.53;1.90;;;22.00;88.20;;;;;;5022536;28;20040;-77
2023/08/24 05:49:15;;;;;;;2.60;2.00;;;22.00;89.00;;;;;;5022721;28;20036;-77
2023/08/24 05:51:41;;;;;;;2.75;1.67;;;22.00;88.50;;;;;;5024576;28;20053;-77
2023/08/24 05:54:07;;;;;;;2.03;1.80;;;22.10;88.20;;;;;;5018677;28;20033;-77
2023/08/24 05:56:32;;;;;;;1.80;1.70;;;22.10;88.00;;;;;;5008083;28;20052;-77
2023/08/24 05:58:58;;;;;;;1.88;1.65;;;22.10;88.00;;;;;;5021779;28;20033;-76
2023/08/24 06:01:24;;;;;;;3.67;1.88;;;22.30;88.70;;;;;;5020328;28;20136;-76
2023/08/24 06:03:50;;;;;;;2.08;1.50;;;22.40;87.30;;;;;;5022924;28;20072;-76
2023/08/24 06:06:15;;;;;;;3.55;1.33;;;22.40;87.50;;;;;;5022753;28;20463;-77
2023/08/24 06:08:41;;;;;;;3.72;1.50;;;22.30;87.60;;;;;;5023224;28;20095;-77
2023/08/24 06:11:07;;;;;;;2.50;1.67;;;22.20;88.00;;;;;;5022861;28;20053;-76
2023/08/24 06:13:32;;;;;;;1.50;1.40;;;22.20;88.30;;;;;;5019177;28;20049;-75
2023/08/24 06:15:58;;;;;;;1.70;1.60;;;22.30;88.00;;;;;;5022352;28;20061;-75
2023/08/24 06:18:24;;;;;;;3.53;1.70;;;22.30;88.30;;;;;;5022289;28;20630;-75
2023/08/24 06:20:49;;;;;;;1.40;1.30;;;22.40;87.70;;;;;;5022920;28;20045;-75
2023/08/24 06:23:18;;;;;;;1.77;1.25;;;22.30;87.50;;;;;;5020570;28;20615;-75
2023/08/24 06:25:44;;;;;;;1.60;1.40;;;22.30;87.70;;;;;;5023081;28;20128;-75
2023/08/24 06:28:10;;;;;;;1.30;1.17;;;22.40;87.40;;;;;;5020943;28;20055;-76
2023/08/24 06:30:39;;;;;;;2.63;1.80;;;22.50;87.10;;;;;;5018585;28;20189;-75
2023/08/24 06:33:05;;;;;;;2.80;1.33;;;22.50;86.70;;;;;;5017595;28;20420;-75
2023/08/24 06:35:30;;;;;;;1.63;1.40;;;22.60;86.70;;;;;;5019894;28;20314;-75
2023/08/24 06:37:56;;;;;;;2.05;1.40;;;22.60;86.40;;;;;;5018724;28;20045;-75
2023/08/24 06:40:21;;;;;;;1.60;1.48;;;22.60;86.20;;;;;;5021539;28;20156;-76
2023/08/24 06:42:47;;;;;;;1.42;1.33;;;22.60;86.00;;;;;;5021512;28;20459;-76
2023/08/24 06:45:13;;;;;;;1.42;1.33;;;22.70;86.00;;;;;;5021714;28;20052;-76
2023/08/24 06:47:39;;;;;;;3.03;2.03;;;22.70;85.20;;;;;;5019660;28;20045;-76
2023/08/24 06:50:06;;;;;;;2.58;1.40;;;22.70;85.60;;;;;;5020003;28;20044;-76
2023/08/24 06:52:32;;;;;;;1.95;1.58;;;22.70;84.90;;;;;;5026787;28;20393;-76
2023/08/24 06:54:58;;;;;;;1.10;1.00;;;22.70;85.00;;;;;;5026491;28;20148;-75
2023/08/24 06:57:24;;;;;;;1.70;1.60;;;22.70;85.10;;;;;;5024669;28;20463;-75
2023/08/24 06:59:50;;;;;;;3.75;1.52;;;22.80;85.20;;;;;;5027347;28;20609;-76
2023/08/24 07:02:17;;;;;;;1.20;1.10;;;22.80;85.20;;;;;;5026289;28;20099;-76
2023/08/24 07:04:43;;;;;;;1.50;1.38;;;22.80;85.20;;;;;;5027742;28;20046;-76
2023/08/24 07:07:08;;;;;;;2.47;1.33;;;22.80;85.20;;;;;;5026077;28;20060;-76
2023/08/24 07:09:35;;;;;;;2.65;1.40;;;22.80;85.00;;;;;;5028409;28;20490;-76
2023/08/24 07:12:06;;;;;;;1.85;1.65;;;22.90;85.00;;;;;;5027109;28;20037;-76
2023/08/24 07:14:32;;;;;;;2.00;1.33;;;22.90;84.80;;;;;;5024217;28;20049;-76
2023/08/24 07:16:57;;;;;;;2.28;1.80;;;22.80;85.20;;;;;;5026331;28;20049;-76
2023/08/24 07:19:23;;;;;;;1.48;1.13;;;22.80;85.30;;;;;;5026429;28;20057;-76
2023/08/24 07:21:48;;;;;;;3.40;1.55;;;22.80;85.80;;;;;;5027287;28;20045;-76
2023/08/24 07:24:14;;;;;;;4.50;1.23;;;22.90;85.30;;;;;;5027267;28;20068;-76
2023/08/24 07:26:41;;;;;;;1.55;1.45;;;22.90;85.00;;;;;;5026840;28;20064;-76
2023/08/24 07:29:07;;;;;;;1.27;1.17;;;22.90;85.00;;;;;;5026141;28;20427;-76
2023/08/24 07:31:32;;;;;;;2.08;1.20;;;22.90;84.90;;;;;;5027015;28;20048;-76
2023/08/24 07:33:58;;;;;;;2.15;1.42;;;22.90;84.70;;;;;;5026637;28;20124;-76
2023/08/24 07:36:24;;;;;;;1.23;1.13;;;22.90;84.60;;;;;;5027791;28;20053;-76
2023/08/24 07:38:49;;;;;;;1.38;1.27;;;22.90;84.40;;;;;;5025993;28;20049;-75
2023/08/24 07:41:17;;;;;;;1.05;1.05;;;22.90;84.20;;;;;;5025548;28;20459;-76
2023/08/24 07:43:42;;;;;;;1.10;1.00;;;22.90;84.20;;;;;;5026874;28;20061;-76
2023/08/24 07:46:09;;;;;;;1.10;1.00;;;22.90;84.00;;;;;;5025361;28;20064;-76
2023/08/24 07:48:34;;;;;;;1.20;1.10;;;22.90;83.80;;;;;;5027894;28;20301;-76
2023/08/24 07:51:00;;;;;;;1.33;1.23;;;22.90;84.50;;;;;;5026738;28;20044;-76
2023/08/24 07:53:25;;;;;;;1.55;1.27;;;22.90;83.60;;;;;;5026519;28;20064;-76
2023/08/24 07:55:53;;;;;;;1.42;1.33;;;22.90;83.60;;;;;;5025339;28;20511;-76
2023/08/24 07:58:19;;;;;;;1.30;1.20;;;22.90;83.50;;;;;;5025556;28;20041;-76
2023/08/24 08:00:44;;;;;;;1.23;1.20;;;22.90;83.40;;;;;;5027378;28;20067;-76
2023/08/24 08:03:10;;;;;;;1.30;1.13;;;22.90;83.30;;;;;;5025514;28;20479;-76
2023/08/24 08:05:36;;;;;;;1.08;1.00;;;22.90;83.30;;;;;;5026607;28;20049;-76
2023/08/24 08:08:04;;;;;;;1.38;1.27;;;22.90;83.10;;;;;;5026387;28;20411;-76
2023/08/24 08:10:30;;;;;;;1.40;1.30;;;22.90;83.10;;;;;;5012490;28;20050;-76
2023/08/24 08:12:55;;;;;;;1.20;1.02;;;23.00;83.00;;;;;;5010396;28;20049;-76
2023/08/24 08:15:21;;;;;;;1.10;1.05;;;23.00;83.00;;;;;;5025029;28;20100;-76
2023/08/24 08:17:46;;;;;;;1.20;1.20;;;23.00;82.70;;;;;;5026087;28;20045;-76
2023/08/24 08:20:14;;;;;;;1.10;1.05;;;23.00;82.50;;;;;;5022672;28;20050;-76
2023/08/24 08:22:39;;;;;;;1.10;1.00;;;23.00;82.70;;;;;;5024176;28;20073;-75
2023/08/24 08:25:06;;;;;;;1.00;1.00;;;23.00;82.70;;;;;;5025025;28;20099;-76
2023/08/24 08:27:33;;;;;;;1.33;1.15;;;23.00;82.80;;;;;;5027309;28;20049;-76
2023/08/24 08:29:58;;;;;;;1.15;1.15;;;23.00;82.80;;;;;;5023802;28;20061;-76
2023/08/24 08:32:26;;;;;;;1.38;1.27;;;23.00;82.70;;;;;;5026387;28;20041;-76
2023/08/24 08:34:53;;;;;;;1.05;1.05;;;23.00;82.60;;;;;;5026533;28;20045;-76
2023/08/24 08:37:19;;;;;;;1.00;1.00;;;23.00;82.50;;;;;;5026344;28;20045;-76
2023/08/24 08:39:44;;;;;;;1.08;1.08;;;23.00;82.50;;;;;;5025219;28;20057;-76
2023/08/24 08:42:14;;;;;;;1.27;1.17;;;23.00;82.50;;;;;;5025094;28;20044;-76
2023/08/24 08:44:39;;;;;;;1.15;1.10;;;23.00;82.40;;;;;;5025845;28;20049;-76
2023/08/24 08:47:06;;;;;;;1.02;1.02;;;23.00;82.30;;;;;;5025412;28;20549;-76
2023/08/24 08:49:32;;;;;;;1.13;1.10;;;23.00;82.30;;;;;;5021120;28;20072;-76
2023/08/24 08:51:57;;;;;;;1.23;1.13;;;23.00;82.30;;;;;;5028020;28;20057;-76
2023/08/24 08:54:23;;;;;;;0.90;0.90;;;23.00;82.30;;;;;;5030043;28;20056;-76
2023/08/24 08:56:49;;;;;;;1.00;1.00;;;23.10;82.20;;;;;;5028377;28;20046;-76
2023/08/24 08:59:15;;;;;;;0.70;0.70;;;23.00;82.10;;;;;;5026598;28;20053;-76
2023/08/24 09:01:40;;;;;;;1.13;1.00;;;23.10;82.00;;;;;;5024787;28;20388;-76
2023/08/24 09:04:07;;;;;;;1.13;1.10;;;23.10;82.00;;;;;;5028859;28;20045;-75
2023/08/24 09:06:33;;;;;;;0.80;0.80;;;23.10;82.00;;;;;;5029214;28;20061;-76
2023/08/24 09:09:00;;;;;;;1.00;1.00;;;23.10;82.10;;;;;;5026754;28;20041;-76
2023/08/24 09:11:25;;;;;;;0.82;0.82;;;23.10;82.70;;;;;;5027101;28;20050;-76
2023/08/24 09:13:51;;;;;;;1.10;1.00;;;23.10;81.50;;;;;;5026568;28;20075;-76
2023/08/24 09:16:17;;;;;;;1.33;1.20;;;23.10;81.40;;;;;;5029021;28;20061;-76
2023/08/24 09:18:46;;;;;;;0.70;0.70;;;23.10;81.50;;;;;;5029036;28;20057;-76
2023/08/24 09:21:13;;;;;;;1.17;1.15;;;23.10;81.50;;;;;;5029500;28;20046;-76
2023/08/24 09:23:45;;;;;;;1.00;1.00;;;23.10;81.80;;;;;;5027499;28;20045;-76
2023/08/24 09:26:11;;;;;;;0.90;0.90;;;23.10;81.80;;;;;;5028118;28;20075;-76
2023/08/24 09:28:39;;;;;;;1.00;1.00;;;23.10;81.90;;;;;;5029312;28;20035;-76
2023/08/24 09:31:05;;;;;;;0.93;0.90;;;23.10;81.60;;;;;;5029297;28;20041;-75
2023/08/24 09:33:30;;;;;;;1.10;1.00;;;23.10;81.90;;;;;;5029270;28;20048;-75
2023/08/24 09:36:01;;;;;;;1.35;1.25;;;23.10;81.70;;;;;;5028959;28;20361;-75
2023/08/24 09:38:26;;;;;;;0.82;0.70;;;23.10;81.90;;;;;;5028464;28;20045;-76
2023/08/24 09:40:55;;;;;;;0.93;0.93;;;23.10;81.80;;;;;;5028986;28;20168;-76
2023/08/24 09:43:21;;;;;;;0.90;0.90;;;23.10;81.90;;;;;;5026932;28;20251;-76
2023/08/24 09:45:49;;;;;;;1.02;0.95;;;23.10;81.90;;;;;;5029424;28;20037;-76
2023/08/24 09:48:14;;;;;;;1.38;1.02;;;23.10;81.70;;;;;;5028536;28;20046;-76
2023/08/24 09:50:40;;;;;;;0.90;0.90;;;23.10;81.90;;;;;;5028556;28;20045;-76
2023/08/24 09:53:06;;;;;;;1.13;1.00;;;23.10;81.70;;;;;;5023815;28;20074;-76
2023/08/24 09:55:31;;;;;;;0.93;0.93;;;23.10;81.80;;;;;;5009009;28;20081;-76
2023/08/24 09:57:57;;;;;;;1.10;1.10;;;23.10;81.80;;;;;;5027081;28;20045;-76
2023/08/24 10:00:24;;;;;;;0.88;0.88;;;23.10;81.60;;;;;;5008016;28;20389;-76
2023/08/24 10:02:51;;;;;;;1.77;1.02;;;23.00;81.80;;;;;;5008470;28;21935;-76
2023/08/24 10:05:20;;;;;;;1.05;1.05;;;23.10;81.70;;;;;;5027950;28;20056;-76
2023/08/24 10:07:52;;;;;;;0.90;0.90;;;23.10;81.70;;;;;;5027599;28;20049;-76
2023/08/24 10:10:17;;;;;;;1.05;1.05;;;23.10;81.60;;;;;;5024359;28;20053;-76
2023/08/24 10:12:46;;;;;;;1.00;1.00;;;23.10;81.30;;;;;;5008525;28;20048;-75
2023/08/24 10:15:12;;;;;;;0.65;0.65;;;23.10;81.30;;;;;;5026437;28;20072;-76
2023/08/24 10:17:38;;;;;;;0.93;0.93;;;23.10;81.30;;;;;;5025659;28;20132;-76
2023/08/24 10:20:06;;;;;;;0.88;0.88;;;23.20;81.50;;;;;;5022481;28;20638;-76
2023/08/24 10:22:33;;;;;;;0.80;0.80;;;23.20;81.60;;;;;;5027324;28;20053;-76
2023/08/24 10:24:59;;;;;;;1.20;1.20;;;23.10;81.70;;;;;;5026458;28;20063;-76
2023/08/24 10:27:24;;;;;;;1.00;1.00;;;23.10;81.50;;;;;;5026929;28;20033;-76
2023/08/24 10:29:50;;;;;;;0.98;0.98;;;23.10;81.40;;;;;;5027524;28;20053;-76
2023/08/24 10:32:15;;;;;;;1.00;1.00;;;23.20;81.50;;;;;;5028030;28;20479;-76
2023/08/24 10:34:41;;;;;;;1.20;1.20;;;23.20;81.60;;;;;;5026828;28;20095;-76
2023/08/24 10:37:10;;;;;;;1.10;1.00;;;23.10;81.40;;;;;;5025938;28;20133;-76
2023/08/24 10:39:39;;;;;;;0.77;0.77;;;23.20;81.50;;;;;;5027933;28;20049;-76
2023/08/24 10:42:06;;;;;;;1.20;1.20;;;23.10;81.20;;;;;;5024323;28;20495;-76
2023/08/24 10:44:35;;;;;;;1.10;1.10;;;23.20;81.30;;;;;;5026319;28;20048;-76
2023/08/24 10:47:20;;;;;;;1.40;1.25;;;23.10;81.30;;;;;;5027885;28;20041;-75
2023/08/24 10:49:55;;;;;;;1.40;1.30;;;23.20;81.30;;;;;;5025305;28;20068;-76
2023/08/24 10:52:31;;;;;;;1.10;1.10;;;23.20;81.50;;;;;;5026267;28;20072;-76
2023/08/24 10:54:57;;;;;;;1.00;1.00;;;23.20;81.00;;;;;;5027473;28;20511;-76
2023/08/24 10:57:29;;;;;;;1.00;1.00;;;23.20;80.90;;;;;;5010613;28;20037;-76
2023/08/24 11:00:09;;;;;;;1.00;1.00;;;23.20;81.20;;;;;;5042012;28;20046;-76
2023/08/24 11:02:44;;;;;;;0.90;0.90;;;23.20;81.10;;;;;;5016164;28;20518;-76
2023/08/24 11:05:24;;;;;;;0.90;0.90;;;23.20;81.10;;;;;;4669367;28;10000176;-77
2023/08/24 11:07:50;;;;;;;0.90;0.90;;;23.20;81.10;;;;;;5020909;28;20124;-78
2023/08/24 11:10:16;;;;;;;0.93;0.93;;;23.20;81.10;;;;;;5023408;28;20175;-77
2023/08/24 11:13:11;;;;;;;0.93;0.93;;;23.30;81.40;;;;;;5021016;28;20046;-78
2023/08/24 11:15:41;;;;;;;1.50;1.40;;;23.20;81.40;;;;;;5016355;28;20049;-78
2023/08/24 11:18:29;;;;;;;1.40;1.30;;;23.30;81.40;;;;;;5020194;28;20041;-78
2023/08/24 11:20:55;;;;;;;1.00;1.00;;;23.30;81.60;;;;;;5004322;28;20446;-78
2023/08/24 11:23:22;;;;;;;2.05;0.93;;;23.30;81.60;;;;;;5022371;28;20407;-77
2023/08/24 11:25:49;;;;;;;0.73;0.73;;;23.30;81.60;;;;;;5003823;28;20101;-78
2023/08/24 11:28:19;;;;;;;0.90;0.90;;;23.30;81.70;;;;;;5004542;28;20029;-78
2023/08/24 11:30:45;;;;;;;0.98;0.98;;;23.30;81.60;;;;;;5002961;28;20108;-77
2023/08/24 11:33:11;;;;;;;1.30;1.00;;;23.30;81.50;;;;;;5006909;28;20034;-77
2023/08/24 11:35:37;;;;;;;1.40;1.13;;;23.30;81.70;;;;;;5019218;28;20041;-78
2023/08/24 11:38:03;;;;;;;1.33;0.88;;;23.30;81.80;;;;;;5021032;28;20105;-78
2023/08/24 11:40:29;;;;;;;1.02;1.02;;;23.30;81.70;;;;;;5021797;28;20045;-78
2023/08/24 11:42:55;;;;;;;1.25;1.25;;;23.30;82.80;;;;;;5021003;28;20033;-77
2023/08/24 11:45:21;;;;;;;1.13;1.08;;;23.30;82.10;;;;;;5021514;28;20084;-77
2023/08/24 11:47:47;;;;;;;1.38;1.30;;;23.30;82.10;;;;;;5017244;28;20128;-78
2023/08/24 11:50:12;;;;;;;1.42;1.30;;;23.30;82.10;;;;;;5027248;28;20192;-77
2023/08/24 11:52:44;;;;;;;1.33;1.17;;;23.30;82.10;;;;;;5018018;28;20048;-77
2023/08/24 11:55:10;;;;;;;1.00;1.00;;;23.30;82.80;;;;;;5026807;28;20053;-78
2023/08/24 11:57:38;;;;;;;1.35;1.20;;;23.30;81.80;;;;;;5023286;28;20115;-78
2023/08/24 12:00:04;;;;;;;1.25;1.15;;;23.30;81.60;;;;;;5025362;28;20053;-78
2023/08/24 12:02:31;;;;;;;1.38;1.27;;;23.40;81.50;;;;;;5007641;28;20495;-78
2023/08/24 12:04:57;;;;;;;1.40;1.10;;;23.40;81.50;;;;;;5025195;28;20115;-78
2023/08/24 12:07:22;;;;;;;1.02;1.02;;;23.40;81.40;;;;;;5021768;28;20041;-78
2023/08/24 12:09:52;;;;;;;1.00;1.00;;;23.40;81.20;;;;;;5023408;28;20037;-78
2023/08/24 12:12:18;;;;;;;1.60;1.23;;;23.40;81.20;;;;;;5025454;28;20048;-78
2023/08/24 12:14:44;;;;;;;1.17;1.08;;;23.40;81.10;;;;;;5021125;28;20496;-78
2023/08/24 12:17:10;;;;;;;1.17;1.10;;;23.40;81.20;;;;;;5024232;28;20511;-78
2023/08/24 12:19:36;;;;;;;0.85;0.85;;;23.40;81.20;;;;;;5026444;28;20040;-78
2023/08/24 12:22:02;;;;;;;1.13;1.02;;;23.40;81.10;;;;;;5026574;28;20108;-78
2023/08/24 12:24:28;;;;;;;1.00;1.00;;;23.40;81.20;;;;;;5025263;28;20044;-78
2023/08/24 12:26:57;;;;;;;1.10;1.10;;;23.40;81.10;;;;;;5021659;28;20037;-78
2023/08/24 12:29:23;;;;;;;0.90;0.90;;;23.40;81.00;;;;;;5024090;28;20609;-78
2023/08/24 12:31:49;;;;;;;1.10;1.10;;;23.50;81.00;;;;;;5026123;28;20049;-78
2023/08/24 12:34:14;;;;;;;1.50;1.40;;;23.50;81.00;;;;;;5025104;28;20040;-78
2023/08/24 12:36:41;;;;;;;1.02;0.90;;;23.50;80.90;;;;;;5025633;28;20037;-78
2023/08/24 12:39:07;;;;;;;1.17;1.17;;;23.50;80.90;;;;;;5024372;28;20045;-78
2023/08/24 12:41:33;;;;;;;1.05;1.05;;;23.40;80.80;;;;;;5023959;28;20421;-78